createdAt,value
2019-03-30T00:02:12.389Z,20.27
2019-03-30T00:04:42.128Z,18.47
2019-03-30T00:07:11.733Z,20.23
2019-03-30T00:09:41.438Z,14.77
2019-03-30T00:12:11.438Z,15.07
2019-03-30T00:14:40.868Z,16.83
2019-03-30T00:17:12.102Z,16.07
2019-03-30T00:19:41.808Z,15.70
2019-03-30T00:22:11.462Z,14.60
2019-03-30T00:24:41.267Z,13.57
2019-03-30T00:27:11.157Z,11.53
2019-03-30T00:29:40.883Z,10.80
2019-03-30T00:32:10.576Z,12.50
2019-03-30T00:34:40.487Z,16.10
2019-03-30T00:37:10.630Z,14.30
2019-03-30T00:39:40.397Z,12.27
2019-03-30T00:42:10.065Z,13.50
2019-03-30T00:44:39.733Z,14.67
2019-03-30T00:47:09.045Z,14.63
2019-03-30T00:49:49.015Z,12.47
2019-03-30T00:52:10.039Z,12.57
2019-03-30T00:54:39.776Z,13.90
2019-03-30T00:57:09.677Z,15.87
2019-03-30T00:59:39.491Z,13.23
2019-03-30T01:02:09.332Z,13.97
2019-03-30T01:04:39.259Z,13.40
2019-03-30T01:07:09.164Z,14.37
2019-03-30T01:09:41.833Z,12.13
2019-03-30T01:12:12.027Z,14.77
2019-03-30T01:14:41.651Z,15.73
2019-03-30T01:17:11.164Z,12.80
2019-03-30T01:19:40.763Z,14.67
2019-03-30T01:22:10.156Z,14.43
2019-03-30T01:24:39.853Z,15.93
2019-03-30T01:27:09.466Z,11.63
2019-03-30T01:29:39.340Z,14.90
2019-03-30T01:32:08.990Z,12.03
2019-03-30T01:34:38.701Z,12.70
2019-03-30T01:37:08.911Z,13.70
2019-03-30T01:39:38.608Z,11.37
2019-03-30T01:42:08.540Z,11.63
2019-03-30T01:44:38.347Z,14.23
2019-03-30T01:47:07.887Z,15.50
2019-03-30T01:49:37.461Z,13.43
2019-03-30T01:52:06.850Z,12.57
2019-03-30T01:54:36.231Z,13.63
2019-03-30T01:57:05.676Z,12.67
2019-03-30T01:59:35.570Z,13.93
2019-03-30T02:02:05.284Z,13.70
2019-03-30T02:04:34.886Z,12.73
2019-03-30T02:07:04.700Z,12.47
2019-03-30T02:09:34.323Z,14.93
2019-03-30T02:12:03.890Z,12.33
2019-03-30T02:14:33.456Z,14.83
2019-03-30T02:17:03.077Z,13.03
2019-03-30T02:19:32.796Z,14.13
2019-03-30T02:22:02.385Z,12.70
2019-03-30T02:24:31.942Z,13.87
2019-03-30T02:27:01.977Z,13.63
2019-03-30T02:29:31.696Z,14.27
2019-03-30T02:32:01.429Z,12.70
2019-03-30T02:34:31.184Z,14.60
2019-03-30T02:37:00.762Z,12.10
2019-03-30T02:39:30.229Z,14.27
2019-03-30T02:42:00.397Z,12.33
2019-03-30T02:44:30.146Z,13.40
2019-03-30T02:46:59.789Z,13.73
2019-03-30T02:49:29.557Z,13.60
2019-03-30T02:51:59.149Z,11.20
2019-03-30T02:54:28.662Z,12.07
2019-03-30T02:56:58.478Z,11.87
2019-03-30T02:59:28.233Z,15.63
2019-03-30T03:01:57.866Z,13.77
2019-03-30T03:04:27.914Z,12.30
2019-03-30T03:06:57.468Z,13.67
2019-03-30T03:09:26.912Z,13.73
2019-03-30T03:11:56.742Z,13.97
2019-03-30T03:14:26.641Z,14.77
2019-03-30T03:16:56.529Z,13.20
2019-03-30T03:19:26.473Z,11.83
2019-03-30T03:21:56.685Z,16.13
2019-03-30T03:24:26.289Z,13.50
2019-03-30T03:26:56.817Z,14.80
2019-03-30T03:29:26.609Z,14.40
2019-03-30T03:31:56.620Z,12.17
2019-03-30T03:34:26.908Z,13.73
2019-03-30T03:36:59.764Z,16.63
2019-03-30T03:39:30.456Z,12.10
2019-03-30T03:42:00.347Z,12.83
2019-03-30T03:44:35.958Z,13.50
2019-03-30T03:47:06.467Z,14.07
2019-03-30T03:49:37.360Z,13.50
2019-03-30T03:52:07.541Z,16.13
2019-03-30T03:54:37.490Z,14.90
2019-03-30T03:57:07.640Z,14.67
2019-03-30T03:59:41.271Z,18.67
2019-03-30T04:02:12.152Z,16.53
2019-03-30T04:04:47.534Z,17.97
2019-03-30T04:07:17.832Z,14.10
2019-03-30T04:09:49.792Z,15.90
2019-03-30T04:12:22.428Z,13.90
2019-03-30T04:14:54.981Z,14.90
2019-03-30T04:17:25.033Z,18.23
2019-03-30T04:19:55.011Z,17.30
2019-03-30T04:22:24.558Z,14.90
2019-03-30T04:24:54.187Z,16.87
2019-03-30T04:27:24.251Z,15.20
2019-03-30T04:29:53.735Z,15.70
2019-03-30T04:32:23.341Z,17.87
2019-03-30T04:34:52.846Z,16.53
2019-03-30T04:37:22.563Z,18.53
2019-03-30T04:39:52.140Z,17.57
2019-03-30T04:42:21.679Z,19.70
2019-03-30T04:44:51.369Z,17.77
2019-03-30T04:47:21.084Z,17.20
2019-03-30T04:49:50.571Z,15.00
2019-03-30T04:52:20.455Z,18.47
2019-03-30T04:54:50.091Z,17.30
2019-03-30T04:57:20.013Z,19.40
2019-03-30T04:59:49.619Z,16.53
2019-03-30T05:02:21.687Z,18.60
2019-03-30T05:04:51.352Z,15.90
2019-03-30T05:07:21.453Z,18.83
2019-03-30T05:09:51.120Z,18.40
2019-03-30T05:12:21.480Z,23.17
2019-03-30T05:14:51.555Z,20.37
2019-03-30T05:17:20.985Z,19.67
2019-03-30T05:19:50.794Z,21.03
2019-03-30T05:22:20.479Z,21.00
2019-03-30T05:24:50.096Z,18.67
2019-03-30T05:27:20.107Z,17.83
2019-03-30T05:29:49.848Z,20.10
2019-03-30T05:32:19.331Z,17.47
2019-03-30T05:34:49.452Z,23.93
2019-03-30T05:37:19.147Z,16.83
2019-03-30T05:39:48.694Z,18.60
2019-03-30T05:42:21.563Z,18.70
2019-03-30T05:44:50.966Z,22.43
2019-03-30T05:47:20.741Z,18.93
2019-03-30T05:49:50.585Z,16.00
2019-03-30T05:52:26.249Z,15.03
2019-03-30T05:54:51.673Z,13.93
2019-03-30T05:57:21.487Z,13.73
2019-03-30T05:59:51.235Z,12.47
2019-03-30T06:02:20.952Z,14.47
2019-03-30T06:04:50.438Z,14.70
2019-03-30T06:07:20.067Z,12.40
2019-03-30T06:09:49.789Z,12.10
2019-03-30T06:12:19.794Z,11.83
2019-03-30T06:14:49.231Z,12.37
2019-03-30T06:17:18.801Z,12.90
2019-03-30T06:19:49.036Z,12.20
2019-03-30T06:22:18.725Z,10.70
2019-03-30T06:24:48.568Z,14.50
2019-03-30T06:27:18.129Z,24.57
2019-03-30T06:30:06.802Z,15.47
2019-03-30T06:32:37.421Z,12.53
2019-03-30T06:35:06.916Z,13.83
2019-03-30T06:37:36.453Z,14.13
2019-03-30T06:40:06.160Z,13.20
2019-03-30T06:42:36.115Z,14.20
2019-03-30T06:45:05.858Z,13.60
2019-03-30T06:47:35.565Z,12.67
2019-03-30T06:50:05.812Z,14.90
2019-03-30T06:52:35.332Z,14.07
2019-03-30T06:55:05.263Z,17.03
2019-03-30T06:57:34.836Z,14.73
2019-03-30T07:00:04.568Z,14.73
2019-03-30T07:02:34.427Z,13.97
2019-03-30T07:05:04.229Z,14.33
2019-03-30T07:07:34.047Z,17.63
2019-03-30T07:10:04.576Z,15.80
2019-03-30T07:12:36.451Z,13.13
2019-03-30T07:15:06.576Z,15.07
2019-03-30T07:17:38.824Z,13.30
2019-03-30T07:20:10.477Z,15.03
2019-03-30T07:22:40.439Z,14.80
2019-03-30T07:25:10.202Z,14.03
2019-03-30T07:27:39.810Z,14.43
2019-03-30T07:30:09.724Z,14.80
2019-03-30T07:32:39.440Z,15.30
2019-03-30T07:35:09.148Z,16.30
2019-03-30T07:37:38.881Z,15.13
2019-03-30T07:40:08.817Z,15.30
2019-03-30T07:42:38.418Z,15.90
2019-03-30T07:45:08.253Z,14.77
2019-03-30T07:47:38.028Z,17.40
2019-03-30T07:50:07.643Z,15.57
2019-03-30T07:52:37.326Z,15.43
2019-03-30T07:55:07.317Z,15.40
2019-03-30T07:57:37.361Z,15.63
2019-03-30T08:00:07.144Z,16.80
2019-03-30T08:02:37.204Z,16.37
2019-03-30T08:05:06.896Z,17.50
2019-03-30T08:07:36.564Z,15.50
2019-03-30T08:10:06.199Z,16.00
2019-03-30T08:12:35.829Z,15.67
2019-03-30T08:15:05.716Z,15.77
2019-03-30T08:17:35.299Z,15.03
2019-03-30T08:20:05.154Z,14.77
2019-03-30T08:22:34.811Z,15.17
2019-03-30T08:25:04.613Z,14.67
2019-03-30T08:27:34.236Z,15.03
2019-03-30T08:30:03.865Z,15.00
2019-03-30T08:32:33.774Z,14.60
2019-03-30T08:35:03.472Z,14.77
2019-03-30T08:37:32.876Z,13.57
2019-03-30T08:40:02.474Z,15.63
2019-03-30T08:42:32.322Z,14.43
2019-03-30T08:45:01.923Z,14.03
2019-03-30T08:47:31.294Z,13.80
2019-03-30T08:50:00.913Z,14.77
2019-03-30T08:52:30.507Z,16.60
2019-03-30T08:55:00.357Z,15.90
2019-03-30T08:57:30.545Z,15.03
2019-03-30T09:00:00.370Z,17.07
2019-03-30T09:02:30.279Z,14.57
2019-03-30T09:05:00.050Z,15.00
2019-03-30T09:07:29.995Z,16.57
2019-03-30T09:09:59.504Z,16.13
2019-03-30T09:12:29.019Z,17.77
2019-03-30T09:14:58.821Z,14.97
2019-03-30T09:17:28.509Z,17.37
2019-03-30T09:19:58.474Z,18.57
2019-03-30T09:22:28.664Z,17.20
2019-03-30T09:24:58.474Z,15.93
2019-03-30T09:27:28.527Z,17.20
2019-03-30T09:29:58.477Z,17.30
2019-03-30T09:32:28.051Z,15.77
2019-03-30T09:34:57.732Z,17.03
2019-03-30T09:37:27.243Z,15.00
2019-03-30T09:39:56.697Z,17.87
2019-03-30T09:42:26.341Z,18.13
2019-03-30T09:44:56.119Z,18.63
2019-03-30T09:47:25.627Z,15.97
2019-03-30T09:49:55.768Z,17.20
2019-03-30T09:52:25.429Z,16.27
2019-03-30T09:54:55.076Z,21.40
2019-03-30T09:57:25.064Z,16.13
2019-03-30T09:59:55.038Z,16.10
2019-03-30T10:02:24.608Z,15.33
2019-03-30T10:04:54.317Z,17.37
2019-03-30T10:07:23.872Z,17.77
2019-03-30T10:09:53.774Z,19.07
2019-03-30T10:12:23.346Z,15.87
2019-03-30T10:14:53.297Z,15.63
2019-03-30T10:17:23.011Z,18.70
2019-03-30T10:20:03.648Z,15.63
2019-03-30T10:22:23.535Z,15.87
2019-03-30T10:24:53.446Z,15.57
2019-03-30T10:27:23.346Z,16.43
2019-03-30T10:29:52.864Z,16.53
2019-03-30T10:32:22.354Z,16.03
2019-03-30T10:34:54.242Z,16.47
2019-03-30T10:37:23.796Z,15.67
2019-03-30T10:39:53.459Z,16.07
2019-03-30T10:42:23.014Z,15.40
2019-03-30T10:44:52.417Z,15.60
2019-03-30T10:47:22.119Z,14.70
2019-03-30T10:49:51.638Z,17.27
2019-03-30T10:52:21.033Z,17.33
2019-03-30T10:54:53.096Z,16.70
2019-03-30T10:57:22.415Z,16.20
2019-03-30T10:59:52.113Z,15.63
2019-03-30T11:02:21.787Z,13.73
2019-03-30T11:04:52.638Z,15.17
2019-03-30T11:07:22.463Z,15.57
2019-03-30T11:09:52.269Z,15.70
2019-03-30T11:12:21.985Z,15.73
2019-03-30T11:14:51.380Z,14.20
2019-03-30T11:17:21.133Z,15.47
2019-03-30T11:19:50.900Z,12.70
2019-03-30T11:22:20.188Z,13.67
2019-03-30T11:24:50.811Z,14.23
2019-03-30T11:27:20.551Z,14.73
2019-03-30T11:29:50.455Z,15.53
2019-03-30T11:32:19.938Z,19.13
2019-03-30T11:34:49.981Z,16.00
2019-03-30T11:37:19.402Z,16.70
2019-03-30T11:39:49.229Z,14.77
2019-03-30T11:42:18.904Z,15.87
2019-03-30T11:44:48.608Z,15.17
2019-03-30T11:47:18.855Z,14.20
2019-03-30T11:49:48.880Z,16.13
2019-03-30T11:52:18.863Z,17.97
2019-03-30T11:54:48.376Z,14.63
2019-03-30T11:57:17.965Z,13.13
2019-03-30T11:59:47.709Z,13.47
2019-03-30T12:02:27.916Z,17.17
2019-03-30T12:04:48.799Z,14.83
2019-03-30T12:07:18.806Z,17.40
2019-03-30T12:09:48.362Z,12.93
2019-03-30T12:12:17.996Z,15.53
2019-03-30T12:14:48.026Z,17.67
2019-03-30T12:17:17.773Z,18.13
2019-03-30T12:19:47.251Z,13.43
2019-03-30T12:22:16.696Z,12.77
2019-03-30T12:24:46.130Z,11.23
2019-03-30T12:27:15.750Z,16.00
2019-03-30T12:29:45.112Z,15.20
2019-03-30T12:32:18.208Z,15.07
2019-03-30T12:34:48.213Z,16.07
2019-03-30T12:37:18.018Z,14.83
2019-03-30T12:39:48.428Z,14.03
2019-03-30T12:42:18.365Z,13.47
2019-03-30T12:44:48.431Z,13.73
2019-03-30T12:47:17.866Z,11.90
2019-03-30T12:49:47.787Z,13.07
2019-03-30T12:52:17.306Z,11.77
2019-03-30T12:54:47.528Z,12.50
2019-03-30T12:57:17.419Z,10.17
2019-03-30T12:59:47.365Z,11.20
2019-03-30T13:02:16.936Z,11.60
2019-03-30T13:04:46.644Z,12.70
2019-03-30T13:07:16.565Z,11.13
2019-03-30T13:09:46.422Z,10.83
2019-03-30T13:12:16.237Z,10.77
2019-03-30T13:14:46.149Z,8.53
2019-03-30T13:17:15.732Z,8.87
2019-03-30T13:19:45.768Z,7.07
2019-03-30T13:22:15.232Z,8.60
2019-03-30T13:24:45.077Z,6.80
2019-03-30T13:27:15.070Z,6.50
2019-03-30T13:29:44.967Z,9.10
2019-03-30T13:32:14.555Z,6.97
2019-03-30T13:34:44.640Z,7.90
2019-03-30T13:37:16.657Z,9.03
2019-03-30T13:39:46.941Z,8.97
2019-03-30T13:42:16.407Z,8.40
2019-03-30T13:44:45.844Z,7.17
2019-03-30T13:47:15.588Z,7.27
2019-03-30T13:49:45.520Z,7.40
2019-03-30T13:52:15.201Z,6.10
2019-03-30T13:54:44.723Z,8.00
2019-03-30T13:57:14.628Z,6.27
2019-03-30T13:59:44.503Z,5.70
2019-03-30T14:02:14.530Z,5.77
2019-03-30T14:04:44.280Z,6.23
2019-03-30T14:07:13.873Z,5.77
2019-03-30T14:09:44.040Z,6.70
2019-03-30T14:15:37.053Z,8.57
2019-03-30T14:18:06.993Z,7.67
2019-03-30T14:20:36.655Z,8.73
2019-03-30T14:23:06.545Z,9.10
2019-03-30T14:25:36.094Z,9.03
2019-03-30T14:28:06.968Z,6.30
2019-03-30T14:30:36.435Z,10.00
2019-03-30T14:33:06.306Z,7.37
2019-03-30T14:35:35.963Z,6.63
2019-03-30T14:38:05.780Z,7.10
2019-03-30T14:40:35.736Z,6.57
2019-03-30T14:43:05.696Z,7.77
2019-03-30T14:45:35.429Z,7.73
2019-03-30T14:48:05.338Z,9.47
2019-03-30T14:50:37.709Z,6.87
2019-03-30T14:53:07.424Z,6.97
2019-03-30T14:55:39.547Z,6.87
2019-03-30T14:58:08.783Z,7.77
2019-03-30T15:00:38.899Z,6.37
2019-03-30T15:03:08.478Z,9.90
2019-03-30T15:05:38.259Z,7.80
2019-03-30T15:08:07.871Z,7.67
2019-03-30T15:10:37.643Z,8.13
2019-03-30T15:13:07.887Z,9.00
2019-03-30T15:15:37.350Z,9.23
2019-03-30T15:18:07.158Z,10.13
2019-03-30T15:20:36.660Z,10.27
2019-03-30T15:23:06.701Z,8.43
2019-03-30T15:25:36.507Z,10.47
2019-03-30T15:28:06.562Z,9.97
2019-03-30T15:30:36.268Z,10.80
2019-03-30T15:33:05.939Z,9.93
2019-03-30T15:35:35.990Z,12.57
2019-03-30T15:38:05.560Z,10.07
2019-03-30T15:40:35.562Z,12.27
2019-03-30T15:43:05.167Z,10.40
2019-03-30T15:45:34.898Z,12.70
2019-03-30T15:48:04.904Z,12.60
2019-03-30T15:50:34.623Z,11.83
2019-03-30T15:53:04.188Z,12.43
2019-03-30T15:55:36.347Z,13.57
2019-03-30T15:58:06.051Z,12.57
2019-03-30T16:00:35.499Z,13.27
2019-03-30T16:03:05.086Z,12.30
2019-03-30T16:05:34.920Z,14.10
2019-03-30T16:08:04.694Z,11.97
2019-03-30T16:10:37.102Z,16.07
2019-03-30T16:13:06.618Z,12.73
2019-03-30T16:15:36.327Z,12.37
2019-03-30T16:18:06.066Z,14.37
2019-03-30T16:20:35.508Z,11.80
2019-03-30T16:23:05.570Z,13.47
2019-03-30T16:25:35.306Z,13.03
2019-03-30T16:28:05.212Z,11.73
2019-03-30T16:30:34.837Z,15.30
2019-03-30T16:33:04.623Z,14.63
2019-03-30T16:35:34.711Z,16.83
2019-03-30T16:38:04.681Z,14.77
2019-03-30T16:40:34.635Z,14.57
2019-03-30T16:43:04.622Z,14.07
2019-03-30T16:45:34.939Z,15.97
2019-03-30T16:48:04.658Z,13.20
2019-03-30T16:50:34.142Z,14.23
2019-03-30T16:53:03.908Z,14.37
2019-03-30T16:55:33.541Z,14.63
2019-03-30T16:58:03.390Z,14.93
2019-03-30T17:00:33.866Z,14.37
2019-03-30T17:03:03.720Z,15.60
2019-03-30T17:05:33.015Z,16.17
2019-03-30T17:08:02.607Z,15.83
2019-03-30T17:10:32.212Z,12.90
2019-03-30T17:13:03.774Z,14.50
2019-03-30T17:15:33.201Z,17.60
2019-03-30T17:18:02.709Z,15.67
2019-03-30T17:20:32.615Z,15.43
2019-03-30T17:23:32.228Z,20.90
2019-03-30T17:26:02.090Z,18.93
2019-03-30T17:28:33.378Z,14.93
2019-03-30T17:31:03.367Z,13.60
2019-03-30T17:33:33.190Z,23.67
2019-03-30T17:36:02.906Z,19.27
2019-03-30T17:38:32.525Z,19.90
2019-03-30T17:41:02.254Z,22.77
2019-03-30T17:43:32.037Z,19.47
2019-03-30T17:46:01.400Z,18.27
2019-03-30T17:48:31.075Z,19.47
2019-03-30T17:51:00.816Z,21.47
2019-03-30T17:53:30.500Z,20.90
2019-03-30T17:56:01.876Z,22.93
2019-03-30T17:58:31.334Z,19.80
2019-03-30T18:01:00.975Z,38.27
2019-03-30T18:03:30.730Z,57.77
2019-03-30T18:06:00.440Z,28.07
2019-03-30T18:08:32.626Z,20.10
2019-03-30T18:11:04.105Z,19.00
2019-03-30T18:13:36.722Z,28.37
2019-03-30T18:16:05.631Z,23.17
2019-03-30T18:18:35.343Z,21.17
2019-03-30T18:21:05.142Z,20.23
2019-03-30T18:23:34.977Z,20.07
2019-03-30T18:26:04.603Z,20.33
2019-03-30T18:28:35.325Z,19.70
2019-03-30T18:31:04.812Z,23.90
2019-03-30T18:33:34.741Z,20.60
2019-03-30T18:36:05.255Z,21.70
2019-03-30T18:38:36.771Z,22.07
2019-03-30T18:41:06.754Z,20.87
2019-03-30T18:43:36.656Z,23.23
2019-03-30T18:46:06.233Z,20.93
2019-03-30T18:48:35.697Z,21.63
2019-03-30T18:51:05.709Z,24.07
2019-03-30T18:53:39.352Z,22.63
2019-03-30T18:56:08.956Z,22.90
2019-03-30T18:58:41.944Z,21.17
2019-03-30T19:01:10.105Z,19.70
2019-03-30T19:03:39.954Z,25.60
2019-03-30T19:06:09.555Z,26.23
2019-03-30T19:08:39.420Z,24.70
2019-03-30T19:11:09.143Z,20.37
2019-03-30T19:13:38.548Z,22.20
2019-03-30T19:16:08.555Z,20.33
2019-03-30T19:18:38.049Z,21.70
2019-03-30T19:21:07.678Z,31.10
2019-03-30T19:23:37.259Z,28.33
2019-03-30T19:26:07.135Z,21.77
2019-03-30T19:28:36.911Z,24.43
2019-03-30T19:31:06.575Z,21.37
2019-03-30T19:33:36.419Z,23.60
2019-03-30T19:36:09.816Z,22.90
2019-03-30T19:38:37.650Z,24.93
2019-03-30T19:41:07.499Z,22.07
2019-03-30T19:43:37.306Z,25.47
2019-03-30T19:46:07.379Z,25.07
2019-03-30T19:48:37.231Z,23.43
2019-03-30T19:51:07.063Z,22.63
2019-03-30T19:53:36.654Z,24.23
2019-03-30T19:56:06.211Z,23.30
2019-03-30T19:58:35.791Z,22.37
2019-03-30T20:01:05.748Z,25.87
2019-03-30T20:03:35.578Z,23.47
2019-03-30T20:06:05.380Z,23.17
2019-03-30T20:08:35.031Z,23.97
2019-03-30T20:11:04.851Z,24.17
2019-03-30T20:13:34.510Z,23.50
2019-03-30T20:16:04.238Z,25.50
2019-03-30T20:18:34.563Z,23.70
2019-03-30T20:21:04.608Z,24.20
2019-03-30T20:23:34.192Z,26.53
2019-03-30T20:26:04.469Z,25.87
2019-03-30T20:28:33.935Z,24.13
2019-03-30T20:31:04.004Z,27.13
2019-03-30T20:33:33.760Z,28.27
2019-03-30T20:36:03.335Z,31.17
2019-03-30T20:38:32.941Z,32.03
2019-03-30T20:41:02.560Z,28.57
2019-03-30T20:43:32.176Z,26.20
2019-03-30T20:46:01.872Z,26.73
2019-03-30T20:48:31.501Z,26.13
2019-03-30T20:51:04.045Z,27.03
2019-03-30T20:53:33.866Z,26.43
2019-03-30T20:56:03.576Z,27.17
2019-03-30T20:58:32.842Z,28.87
2019-03-30T21:01:02.721Z,27.43
2019-03-30T21:03:32.844Z,29.40
2019-03-30T21:06:02.815Z,26.73
2019-03-30T21:08:32.632Z,27.63
2019-03-30T21:11:02.233Z,27.57
2019-03-30T21:13:32.339Z,27.10
2019-03-30T21:16:01.894Z,28.07
2019-03-30T21:18:31.670Z,28.00
2019-03-30T21:21:01.188Z,26.60
2019-03-30T21:23:31.194Z,25.90
2019-03-30T21:26:01.105Z,26.83
2019-03-30T21:28:30.726Z,27.37
2019-03-30T21:31:00.657Z,26.10
2019-03-30T21:33:30.513Z,25.77
2019-03-30T21:36:01.090Z,27.47
2019-03-30T21:38:30.552Z,30.53
2019-03-30T21:41:00.379Z,29.47
2019-03-30T21:43:30.203Z,30.30
2019-03-30T21:45:59.892Z,45.70
2019-03-30T21:48:29.518Z,37.50
2019-03-30T21:50:59.271Z,35.17
2019-03-30T21:53:29.001Z,34.50
2019-03-30T21:55:59.066Z,29.03
2019-03-30T21:58:28.902Z,28.40
2019-03-30T22:01:00.010Z,28.60
2019-03-30T22:03:29.831Z,26.33
2019-03-30T22:05:59.920Z,24.90
2019-03-30T22:08:29.798Z,26.57
2019-03-30T22:10:59.936Z,27.27
2019-03-30T22:13:29.941Z,30.50
2019-03-30T22:15:59.797Z,28.00
2019-03-30T22:18:30.003Z,27.93
2019-03-30T22:20:59.661Z,29.00
2019-03-30T22:23:29.323Z,26.40
2019-03-30T22:25:59.263Z,26.63
2019-03-30T22:28:28.874Z,26.07
2019-03-30T22:30:58.534Z,28.07
2019-03-30T22:33:30.787Z,26.43
2019-03-30T22:35:59.820Z,25.17
2019-03-30T22:38:29.885Z,26.03
2019-03-30T22:40:59.759Z,24.10
2019-03-30T22:43:29.618Z,24.87
2019-03-30T22:45:59.052Z,24.17
2019-03-30T22:48:28.526Z,24.53
2019-03-30T22:50:58.112Z,26.83
2019-03-30T22:53:28.001Z,27.73
2019-03-30T22:55:57.462Z,28.47
2019-03-30T22:58:27.099Z,26.87
2019-03-30T23:01:17.681Z,25.43
2019-03-30T23:03:47.567Z,24.10
2019-03-30T23:06:17.192Z,26.23
2019-03-30T23:08:46.925Z,25.50
2019-03-30T23:11:16.606Z,24.33
2019-03-30T23:13:46.441Z,24.53
2019-03-30T23:16:15.918Z,23.90
2019-03-30T23:18:46.074Z,27.87
2019-03-30T23:21:15.485Z,24.60
2019-03-30T23:23:44.893Z,28.23
2019-03-30T23:26:14.547Z,23.90
2019-03-30T23:28:44.369Z,22.37
2019-03-30T23:31:13.943Z,22.80
2019-03-30T23:33:43.766Z,23.53
2019-03-30T23:36:13.286Z,24.37
2019-03-30T23:38:42.793Z,24.27
2019-03-30T23:41:12.440Z,25.63
2019-03-30T23:43:45.287Z,22.50
2019-03-30T23:46:15.250Z,23.97
2019-03-30T23:48:47.283Z,26.33
2019-03-30T23:51:17.400Z,25.17
2019-03-30T23:53:47.222Z,21.67
2019-03-30T23:56:23.809Z,29.30
2019-03-30T23:58:53.959Z,25.60
